sensor_id;sensor_type;location;lat;lon;timestamp;P1;durP1;ratioP1;P2;durP2;ratioP2
68379;SDS011;57711;53.196;19.638;2023-05-13T00:01:58;29.40;;;11.00;;
68379;SDS011;57711;53.196;19.638;2023-05-13T00:04:25;43.50;;;17.60;;
68379;SDS011;57711;53.196;19.638;2023-05-13T00:06:52;56.00;;;19.40;;
68379;SDS011;57711;53.196;19.638;2023-05-13T00:09:19;52.10;;;21.20;;
68379;SDS011;57711;53.196;19.638;2023-05-13T00:11:46;47.70;;;20.40;;
68379;SDS011;57711;53.196;19.638;2023-05-13T00:14:13;43.30;;;18.80;;
68379;SDS011;57711;53.196;19.638;2023-05-13T00:16:40;35.60;;;16.00;;
68379;SDS011;57711;53.196;19.638;2023-05-13T00:19:09;32.00;;;14.90;;
68379;SDS011;57711;53.196;19.638;2023-05-13T00:21:36;31.00;;;12.30;;
68379;SDS011;57711;53.196;19.638;2023-05-13T00:24:03;21.70;;;11.70;;
68379;SDS011;57711;53.196;19.638;2023-05-13T00:26:31;23.90;;;11.80;;
68379;SDS011;57711;53.196;19.638;2023-05-13T00:28:58;28.00;;;12.50;;
68379;SDS011;57711;53.196;19.638;2023-05-13T00:31:26;25.10;;;12.00;;
68379;SDS011;57711;53.196;19.638;2023-05-13T00:33:53;23.70;;;12.00;;
68379;SDS011;57711;53.196;19.638;2023-05-13T00:36:20;23.50;;;11.10;;
68379;SDS011;57711;53.196;19.638;2023-05-13T00:38:47;16.60;;;9.10;;
68379;SDS011;57711;53.196;19.638;2023-05-13T00:41:14;27.70;;;9.50;;
68379;SDS011;57711;53.196;19.638;2023-05-13T00:43:41;14.10;;;8.30;;
68379;SDS011;57711;53.196;19.638;2023-05-13T00:46:08;13.50;;;7.50;;
68379;SDS011;57711;53.196;19.638;2023-05-13T00:48:36;12.90;;;6.90;;
68379;SDS011;57711;53.196;19.638;2023-05-13T00:51:04;14.30;;;8.00;;
68379;SDS011;57711;53.196;19.638;2023-05-13T00:53:32;19.40;;;10.10;;
68379;SDS011;57711;53.196;19.638;2023-05-13T00:55:59;22.70;;;10.00;;
68379;SDS011;57711;53.196;19.638;2023-05-13T00:58:26;27.00;;;11.50;;
68379;SDS011;57711;53.196;19.638;2023-05-13T01:03:55;21.40;;;9.40;;
68379;SDS011;57711;53.196;19.638;2023-05-13T01:09:35;20.90;;;8.60;;
68379;SDS011;57711;53.196;19.638;2023-05-13T01:12:15;17.70;;;8.40;;
68379;SDS011;57711;53.196;19.638;2023-05-13T01:14:48;18.90;;;8.00;;
68379;SDS011;57711;53.196;19.638;2023-05-13T01:17:24;17.30;;;8.00;;
68379;SDS011;57711;53.196;19.638;2023-05-13T01:19:57;15.80;;;7.00;;
68379;SDS011;57711;53.196;19.638;2023-05-13T01:22:29;16.00;;;7.40;;
68379;SDS011;57711;53.196;19.638;2023-05-13T01:24:56;14.80;;;7.00;;
68379;SDS011;57711;53.196;19.638;2023-05-13T01:27:24;16.50;;;7.00;;
68379;SDS011;57711;53.196;19.638;2023-05-13T01:29:51;10.70;;;6.00;;
68379;SDS011;57711;53.196;19.638;2023-05-13T01:32:23;15.30;;;6.50;;
68379;SDS011;57711;53.196;19.638;2023-05-13T01:34:53;16.20;;;7.00;;
68379;SDS011;57711;53.196;19.638;2023-05-13T01:37:21;8.60;;;5.90;;
68379;SDS011;57711;53.196;19.638;2023-05-13T01:39:49;13.00;;;5.50;;
68379;SDS011;57711;53.196;19.638;2023-05-13T01:42:17;12.10;;;5.60;;
68379;SDS011;57711;53.196;19.638;2023-05-13T01:44:44;19.10;;;9.10;;
68379;SDS011;57711;53.196;19.638;2023-05-13T01:47:12;18.10;;;8.70;;
68379;SDS011;57711;53.196;19.638;2023-05-13T01:49:39;15.10;;;8.60;;
68379;SDS011;57711;53.196;19.638;2023-05-13T01:52:06;13.90;;;7.50;;
68379;SDS011;57711;53.196;19.638;2023-05-13T01:54:33;21.10;;;7.70;;
68379;SDS011;57711;53.196;19.638;2023-05-13T01:57:04;12.60;;;7.00;;
68379;SDS011;57711;53.196;19.638;2023-05-13T01:59:32;14.20;;;7.50;;
68379;SDS011;57711;53.196;19.638;2023-05-13T02:01:59;12.70;;;6.80;;
68379;SDS011;57711;53.196;19.638;2023-05-13T02:04:26;16.20;;;6.90;;
68379;SDS011;57711;53.196;19.638;2023-05-13T02:06:54;9.70;;;6.60;;
68379;SDS011;57711;53.196;19.638;2023-05-13T02:09:22;15.60;;;7.60;;
68379;SDS011;57711;53.196;19.638;2023-05-13T02:11:49;23.00;;;10.00;;
68379;SDS011;57711;53.196;19.638;2023-05-13T02:14:16;24.50;;;9.50;;
68379;SDS011;57711;53.196;19.638;2023-05-13T02:16:43;25.50;;;11.60;;
68379;SDS011;57711;53.196;19.638;2023-05-13T02:19:11;24.80;;;12.20;;
68379;SDS011;57711;53.196;19.638;2023-05-13T02:21:38;20.20;;;9.50;;
68379;SDS011;57711;53.196;19.638;2023-05-13T02:24:05;17.70;;;8.10;;
68379;SDS011;57711;53.196;19.638;2023-05-13T02:26:33;20.00;;;9.90;;
68379;SDS011;57711;53.196;19.638;2023-05-13T02:29:00;14.40;;;8.50;;
68379;SDS011;57711;53.196;19.638;2023-05-13T02:31:27;26.50;;;9.70;;
68379;SDS011;57711;53.196;19.638;2023-05-13T02:33:54;21.60;;;11.00;;
68379;SDS011;57711;53.196;19.638;2023-05-13T02:36:21;24.50;;;11.50;;
68379;SDS011;57711;53.196;19.638;2023-05-13T02:38:49;23.70;;;10.70;;
68379;SDS011;57711;53.196;19.638;2023-05-13T02:41:16;19.90;;;9.70;;
68379;SDS011;57711;53.196;19.638;2023-05-13T02:43:43;21.60;;;10.40;;
68379;SDS011;57711;53.196;19.638;2023-05-13T02:46:10;21.00;;;10.30;;
68379;SDS011;57711;53.196;19.638;2023-05-13T02:48:37;19.70;;;9.90;;
68379;SDS011;57711;53.196;19.638;2023-05-13T02:51:04;18.40;;;8.60;;
68379;SDS011;57711;53.196;19.638;2023-05-13T02:53:32;15.40;;;8.90;;
68379;SDS011;57711;53.196;19.638;2023-05-13T02:56:01;11.70;;;6.80;;
68379;SDS011;57711;53.196;19.638;2023-05-13T02:58:28;17.90;;;8.40;;
68379;SDS011;57711;53.196;19.638;2023-05-13T03:00:57;17.90;;;8.30;;
68379;SDS011;57711;53.196;19.638;2023-05-13T03:03:24;17.30;;;7.60;;
68379;SDS011;57711;53.196;19.638;2023-05-13T03:05:52;14.10;;;7.40;;
68379;SDS011;57711;53.196;19.638;2023-05-13T03:08:19;17.00;;;7.80;;
68379;SDS011;57711;53.196;19.638;2023-05-13T03:10:46;11.90;;;7.50;;
68379;SDS011;57711;53.196;19.638;2023-05-13T03:13:14;15.80;;;7.20;;
68379;SDS011;57711;53.196;19.638;2023-05-13T03:15:41;15.60;;;6.60;;
68379;SDS011;57711;53.196;19.638;2023-05-13T03:18:10;11.20;;;6.20;;
68379;SDS011;57711;53.196;19.638;2023-05-13T03:20:38;14.40;;;7.50;;
68379;SDS011;57711;53.196;19.638;2023-05-13T03:23:06;15.10;;;8.20;;
68379;SDS011;57711;53.196;19.638;2023-05-13T03:25:34;11.10;;;7.10;;
68379;SDS011;57711;53.196;19.638;2023-05-13T03:28:02;17.70;;;7.40;;
68379;SDS011;57711;53.196;19.638;2023-05-13T03:30:32;11.10;;;7.20;;
68379;SDS011;57711;53.196;19.638;2023-05-13T03:33:03;16.80;;;7.30;;
68379;SDS011;57711;53.196;19.638;2023-05-13T03:35:30;17.50;;;7.30;;
68379;SDS011;57711;53.196;19.638;2023-05-13T03:37:58;13.60;;;6.40;;
68379;SDS011;57711;53.196;19.638;2023-05-13T03:40:25;11.10;;;6.20;;
68379;SDS011;57711;53.196;19.638;2023-05-13T03:42:52;10.30;;;5.10;;
68379;SDS011;57711;53.196;19.638;2023-05-13T03:45:21;11.90;;;5.70;;
68379;SDS011;57711;53.196;19.638;2023-05-13T03:47:49;9.40;;;5.90;;
68379;SDS011;57711;53.196;19.638;2023-05-13T03:50:17;10.00;;;6.20;;
68379;SDS011;57711;53.196;19.638;2023-05-13T03:52:44;8.90;;;5.20;;
68379;SDS011;57711;53.196;19.638;2023-05-13T03:55:13;16.00;;;5.50;;
68379;SDS011;57711;53.196;19.638;2023-05-13T03:57:46;11.90;;;6.80;;
68379;SDS011;57711;53.196;19.638;2023-05-13T04:00:16;13.10;;;6.00;;
68379;SDS011;57711;53.196;19.638;2023-05-13T04:02:43;11.70;;;5.10;;
68379;SDS011;57711;53.196;19.638;2023-05-13T04:05:10;11.00;;;4.90;;
68379;SDS011;57711;53.196;19.638;2023-05-13T04:07:39;10.60;;;5.60;;
68379;SDS011;57711;53.196;19.638;2023-05-13T04:10:07;9.30;;;5.50;;
68379;SDS011;57711;53.196;19.638;2023-05-13T04:12:39;11.90;;;5.10;;
68379;SDS011;57711;53.196;19.638;2023-05-13T04:15:06;12.80;;;5.30;;
68379;SDS011;57711;53.196;19.638;2023-05-13T04:17:34;9.20;;;5.20;;
68379;SDS011;57711;53.196;19.638;2023-05-13T04:20:01;13.50;;;5.40;;
68379;SDS011;57711;53.196;19.638;2023-05-13T04:22:29;18.50;;;5.30;;
68379;SDS011;57711;53.196;19.638;2023-05-13T04:24:56;13.80;;;5.20;;
68379;SDS011;57711;53.196;19.638;2023-05-13T04:27:23;8.30;;;5.30;;
68379;SDS011;57711;53.196;19.638;2023-05-13T04:29:55;12.80;;;5.70;;
68379;SDS011;57711;53.196;19.638;2023-05-13T04:32:23;26.30;;;9.60;;
68379;SDS011;57711;53.196;19.638;2023-05-13T04:34:53;25.90;;;12.00;;
68379;SDS011;57711;53.196;19.638;2023-05-13T04:37:22;20.70;;;8.40;;
68379;SDS011;57711;53.196;19.638;2023-05-13T04:39:51;13.50;;;7.10;;
68379;SDS011;57711;53.196;19.638;2023-05-13T04:42:21;20.40;;;7.20;;
68379;SDS011;57711;53.196;19.638;2023-05-13T04:44:48;14.10;;;6.50;;
68379;SDS011;57711;53.196;19.638;2023-05-13T04:47:15;13.20;;;6.40;;
68379;SDS011;57711;53.196;19.638;2023-05-13T04:49:43;11.30;;;4.60;;
68379;SDS011;57711;53.196;19.638;2023-05-13T04:52:10;8.40;;;5.00;;
68379;SDS011;57711;53.196;19.638;2023-05-13T04:54:40;12.20;;;4.10;;
68379;SDS011;57711;53.196;19.638;2023-05-13T04:57:08;9.00;;;4.60;;
68379;SDS011;57711;53.196;19.638;2023-05-13T04:59:35;12.20;;;4.50;;
68379;SDS011;57711;53.196;19.638;2023-05-13T05:02:02;12.30;;;4.30;;
68379;SDS011;57711;53.196;19.638;2023-05-13T05:04:30;20.20;;;10.80;;
68379;SDS011;57711;53.196;19.638;2023-05-13T05:06:57;25.80;;;15.80;;
68379;SDS011;57711;53.196;19.638;2023-05-13T05:09:24;18.70;;;10.50;;
68379;SDS011;57711;53.196;19.638;2023-05-13T05:11:52;12.40;;;6.20;;
68379;SDS011;57711;53.196;19.638;2023-05-13T05:14:22;18.70;;;6.40;;
68379;SDS011;57711;53.196;19.638;2023-05-13T05:16:49;24.10;;;6.10;;
68379;SDS011;57711;53.196;19.638;2023-05-13T05:19:16;13.70;;;4.80;;
68379;SDS011;57711;53.196;19.638;2023-05-13T05:21:50;8.00;;;3.90;;
68379;SDS011;57711;53.196;19.638;2023-05-13T05:24:17;12.40;;;4.00;;
68379;SDS011;57711;53.196;19.638;2023-05-13T05:26:46;14.40;;;4.20;;
68379;SDS011;57711;53.196;19.638;2023-05-13T05:29:13;8.80;;;4.10;;
68379;SDS011;57711;53.196;19.638;2023-05-13T05:31:42;33.50;;;16.90;;
68379;SDS011;57711;53.196;19.638;2023-05-13T05:34:10;141.90;;;63.90;;
68379;SDS011;57711;53.196;19.638;2023-05-13T05:36:38;84.00;;;42.00;;
68379;SDS011;57711;53.196;19.638;2023-05-13T05:39:05;36.20;;;20.00;;
68379;SDS011;57711;53.196;19.638;2023-05-13T05:41:34;25.00;;;11.70;;
68379;SDS011;57711;53.196;19.638;2023-05-13T05:44:02;19.80;;;7.70;;
68379;SDS011;57711;53.196;19.638;2023-05-13T05:46:30;17.90;;;6.30;;
68379;SDS011;57711;53.196;19.638;2023-05-13T05:48:58;11.40;;;5.20;;
68379;SDS011;57711;53.196;19.638;2023-05-13T05:51:26;8.40;;;4.10;;
68379;SDS011;57711;53.196;19.638;2023-05-13T05:53:53;7.60;;;3.90;;
68379;SDS011;57711;53.196;19.638;2023-05-13T05:56:20;12.50;;;4.40;;
68379;SDS011;57711;53.196;19.638;2023-05-13T05:58:47;8.60;;;4.00;;
68379;SDS011;57711;53.196;19.638;2023-05-13T06:01:15;11.40;;;3.70;;
68379;SDS011;57711;53.196;19.638;2023-05-13T06:03:42;12.40;;;4.40;;
68379;SDS011;57711;53.196;19.638;2023-05-13T06:06:09;8.90;;;3.70;;
68379;SDS011;57711;53.196;19.638;2023-05-13T06:08:36;15.50;;;3.80;;
68379;SDS011;57711;53.196;19.638;2023-05-13T06:11:06;7.70;;;3.80;;
68379;SDS011;57711;53.196;19.638;2023-05-13T06:13:33;8.60;;;3.30;;
68379;SDS011;57711;53.196;19.638;2023-05-13T06:16:00;7.30;;;3.40;;
68379;SDS011;57711;53.196;19.638;2023-05-13T06:18:27;13.00;;;3.10;;
68379;SDS011;57711;53.196;19.638;2023-05-13T06:20:54;16.40;;;3.30;;
68379;SDS011;57711;53.196;19.638;2023-05-13T06:23:21;11.70;;;4.80;;
68379;SDS011;57711;53.196;19.638;2023-05-13T06:25:50;14.10;;;4.30;;
68379;SDS011;57711;53.196;19.638;2023-05-13T06:28:17;13.20;;;5.30;;
68379;SDS011;57711;53.196;19.638;2023-05-13T06:30:44;6.30;;;3.60;;
68379;SDS011;57711;53.196;19.638;2023-05-13T06:33:11;6.00;;;3.50;;
68379;SDS011;57711;53.196;19.638;2023-05-13T06:35:39;11.90;;;4.10;;
68379;SDS011;57711;53.196;19.638;2023-05-13T06:38:07;13.00;;;4.30;;
68379;SDS011;57711;53.196;19.638;2023-05-13T06:40:34;8.20;;;3.30;;
68379;SDS011;57711;53.196;19.638;2023-05-13T06:43:02;8.20;;;3.20;;
68379;SDS011;57711;53.196;19.638;2023-05-13T06:45:34;8.70;;;3.30;;
68379;SDS011;57711;53.196;19.638;2023-05-13T06:48:02;9.20;;;3.70;;
68379;SDS011;57711;53.196;19.638;2023-05-13T06:50:29;6.30;;;3.60;;
68379;SDS011;57711;53.196;19.638;2023-05-13T06:52:56;8.80;;;3.20;;
68379;SDS011;57711;53.196;19.638;2023-05-13T06:55:24;10.80;;;3.50;;
68379;SDS011;57711;53.196;19.638;2023-05-13T06:57:51;8.50;;;2.90;;
68379;SDS011;57711;53.196;19.638;2023-05-13T07:00:19;6.70;;;2.80;;
68379;SDS011;57711;53.196;19.638;2023-05-13T07:02:46;16.50;;;3.30;;
68379;SDS011;57711;53.196;19.638;2023-05-13T07:05:13;16.30;;;4.20;;
68379;SDS011;57711;53.196;19.638;2023-05-13T07:07:40;5.30;;;3.10;;
68379;SDS011;57711;53.196;19.638;2023-05-13T07:10:09;10.90;;;4.00;;
68379;SDS011;57711;53.196;19.638;2023-05-13T07:12:36;10.70;;;3.60;;
68379;SDS011;57711;53.196;19.638;2023-05-13T07:15:03;4.30;;;2.60;;
68379;SDS011;57711;53.196;19.638;2023-05-13T07:17:31;10.80;;;3.40;;
68379;SDS011;57711;53.196;19.638;2023-05-13T07:19:58;13.60;;;3.20;;
68379;SDS011;57711;53.196;19.638;2023-05-13T07:22:25;6.30;;;2.50;;
68379;SDS011;57711;53.196;19.638;2023-05-13T07:24:53;5.20;;;2.50;;
68379;SDS011;57711;53.196;19.638;2023-05-13T07:27:20;5.70;;;2.90;;
68379;SDS011;57711;53.196;19.638;2023-05-13T07:29:47;10.10;;;3.10;;
68379;SDS011;57711;53.196;19.638;2023-05-13T07:32:14;6.80;;;3.50;;
68379;SDS011;57711;53.196;19.638;2023-05-13T07:34:41;14.30;;;3.00;;
68379;SDS011;57711;53.196;19.638;2023-05-13T07:37:08;3.60;;;2.10;;
68379;SDS011;57711;53.196;19.638;2023-05-13T07:39:36;10.00;;;4.70;;
68379;SDS011;57711;53.196;19.638;2023-05-13T07:42:03;11.60;;;3.00;;
68379;SDS011;57711;53.196;19.638;2023-05-13T07:44:30;7.90;;;2.90;;
68379;SDS011;57711;53.196;19.638;2023-05-13T07:46:57;6.20;;;2.20;;
68379;SDS011;57711;53.196;19.638;2023-05-13T07:49:24;4.00;;;2.80;;
68379;SDS011;57711;53.196;19.638;2023-05-13T07:51:51;11.50;;;2.30;;
68379;SDS011;57711;53.196;19.638;2023-05-13T07:54:18;5.20;;;2.40;;
68379;SDS011;57711;53.196;19.638;2023-05-13T07:56:45;6.20;;;2.40;;
68379;SDS011;57711;53.196;19.638;2023-05-13T07:59:13;10.30;;;3.60;;
68379;SDS011;57711;53.196;19.638;2023-05-13T08:01:41;7.70;;;2.70;;
68379;SDS011;57711;53.196;19.638;2023-05-13T08:04:08;5.40;;;2.50;;
68379;SDS011;57711;53.196;19.638;2023-05-13T08:06:36;8.30;;;3.30;;
68379;SDS011;57711;53.196;19.638;2023-05-13T08:09:03;8.30;;;2.60;;
68379;SDS011;57711;53.196;19.638;2023-05-13T08:11:30;7.90;;;2.90;;
68379;SDS011;57711;53.196;19.638;2023-05-13T08:13:58;17.60;;;3.00;;
68379;SDS011;57711;53.196;19.638;2023-05-13T08:16:25;10.90;;;2.30;;
68379;SDS011;57711;53.196;19.638;2023-05-13T08:18:52;6.40;;;3.20;;
68379;SDS011;57711;53.196;19.638;2023-05-13T08:21:19;7.00;;;2.90;;
68379;SDS011;57711;53.196;19.638;2023-05-13T08:23:48;8.90;;;2.80;;
68379;SDS011;57711;53.196;19.638;2023-05-13T08:26:17;6.40;;;2.50;;
68379;SDS011;57711;53.196;19.638;2023-05-13T08:28:44;10.90;;;3.20;;
68379;SDS011;57711;53.196;19.638;2023-05-13T08:31:11;9.30;;;3.00;;
68379;SDS011;57711;53.196;19.638;2023-05-13T08:33:39;4.60;;;2.40;;
68379;SDS011;57711;53.196;19.638;2023-05-13T08:36:11;5.00;;;2.10;;
68379;SDS011;57711;53.196;19.638;2023-05-13T08:38:39;9.50;;;2.10;;
68379;SDS011;57711;53.196;19.638;2023-05-13T08:41:10;8.70;;;2.90;;
68379;SDS011;57711;53.196;19.638;2023-05-13T08:43:39;8.80;;;2.80;;
68379;SDS011;57711;53.196;19.638;2023-05-13T08:46:09;6.70;;;2.40;;
68379;SDS011;57711;53.196;19.638;2023-05-13T08:48:38;8.70;;;2.10;;
68379;SDS011;57711;53.196;19.638;2023-05-13T08:51:07;5.90;;;2.20;;
68379;SDS011;57711;53.196;19.638;2023-05-13T08:53:36;19.60;;;2.80;;
68379;SDS011;57711;53.196;19.638;2023-05-13T08:56:06;16.00;;;2.90;;
68379;SDS011;57711;53.196;19.638;2023-05-13T08:58:34;4.50;;;2.30;;
68379;SDS011;57711;53.196;19.638;2023-05-13T09:01:02;18.20;;;3.10;;
68379;SDS011;57711;53.196;19.638;2023-05-13T09:03:30;6.00;;;2.10;;
68379;SDS011;57711;53.196;19.638;2023-05-13T09:06:00;10.10;;;2.30;;
68379;SDS011;57711;53.196;19.638;2023-05-13T09:08:28;6.00;;;2.10;;
68379;SDS011;57711;53.196;19.638;2023-05-13T09:10:55;11.90;;;2.90;;
68379;SDS011;57711;53.196;19.638;2023-05-13T09:13:23;7.30;;;2.30;;
68379;SDS011;57711;53.196;19.638;2023-05-13T09:15:50;4.00;;;2.00;;
68379;SDS011;57711;53.196;19.638;2023-05-13T09:18:17;6.00;;;2.00;;
68379;SDS011;57711;53.196;19.638;2023-05-13T09:20:45;10.50;;;2.00;;
68379;SDS011;57711;53.196;19.638;2023-05-13T09:23:12;15.40;;;2.50;;
68379;SDS011;57711;53.196;19.638;2023-05-13T09:25:39;4.80;;;2.10;;
68379;SDS011;57711;53.196;19.638;2023-05-13T09:28:07;5.60;;;2.60;;
68379;SDS011;57711;53.196;19.638;2023-05-13T09:30:38;5.40;;;2.00;;
68379;SDS011;57711;53.196;19.638;2023-05-13T09:33:13;5.10;;;2.50;;
68379;SDS011;57711;53.196;19.638;2023-05-13T09:35:51;5.10;;;1.70;;
68379;SDS011;57711;53.196;19.638;2023-05-13T09:38:26;7.80;;;2.50;;
68379;SDS011;57711;53.196;19.638;2023-05-13T09:40:58;7.00;;;2.20;;
68379;SDS011;57711;53.196;19.638;2023-05-13T09:43:32;10.70;;;3.30;;
68379;SDS011;57711;53.196;19.638;2023-05-13T09:46:00;8.80;;;2.30;;
68379;SDS011;57711;53.196;19.638;2023-05-13T09:48:30;6.60;;;2.20;;
68379;SDS011;57711;53.196;19.638;2023-05-13T09:50:58;3.30;;;1.50;;
68379;SDS011;57711;53.196;19.638;2023-05-13T09:53:26;7.40;;;3.00;;
68379;SDS011;57711;53.196;19.638;2023-05-13T09:55:55;8.70;;;2.40;;
68379;SDS011;57711;53.196;19.638;2023-05-13T09:58:24;10.60;;;2.00;;
68379;SDS011;57711;53.196;19.638;2023-05-13T10:00:54;5.40;;;2.50;;
68379;SDS011;57711;53.196;19.638;2023-05-13T10:03:21;4.40;;;2.30;;
68379;SDS011;57711;53.196;19.638;2023-05-13T10:05:49;9.80;;;2.90;;
68379;SDS011;57711;53.196;19.638;2023-05-13T10:08:18;17.80;;;2.70;;
68379;SDS011;57711;53.196;19.638;2023-05-13T10:10:45;7.40;;;2.10;;
68379;SDS011;57711;53.196;19.638;2023-05-13T10:13:16;6.60;;;2.20;;
68379;SDS011;57711;53.196;19.638;2023-05-13T10:15:49;4.80;;;1.70;;
68379;SDS011;57711;53.196;19.638;2023-05-13T10:18:20;7.20;;;1.90;;
68379;SDS011;57711;53.196;19.638;2023-05-13T10:20:49;8.70;;;1.90;;
68379;SDS011;57711;53.196;19.638;2023-05-13T10:23:20;4.00;;;1.50;;
68379;SDS011;57711;53.196;19.638;2023-05-13T10:25:50;10.10;;;1.90;;
68379;SDS011;57711;53.196;19.638;2023-05-13T10:28:20;9.20;;;4.20;;
68379;SDS011;57711;53.196;19.638;2023-05-13T10:30:48;7.70;;;1.80;;
68379;SDS011;57711;53.196;19.638;2023-05-13T10:33:19;13.00;;;2.40;;
68379;SDS011;57711;53.196;19.638;2023-05-13T10:35:52;2.90;;;2.00;;
68379;SDS011;57711;53.196;19.638;2023-05-13T10:44:16;6.80;;;1.40;;
68379;SDS011;57711;53.196;19.638;2023-05-13T10:46:47;3.90;;;1.50;;
68379;SDS011;57711;53.196;19.638;2023-05-13T10:49:15;2.90;;;1.40;;
68379;SDS011;57711;53.196;19.638;2023-05-13T10:51:45;10.20;;;1.80;;
68379;SDS011;57711;53.196;19.638;2023-05-13T10:54:22;8.70;;;2.30;;
68379;SDS011;57711;53.196;19.638;2023-05-13T10:56:57;7.20;;;2.40;;
68379;SDS011;57711;53.196;19.638;2023-05-13T10:59:24;7.80;;;1.70;;
68379;SDS011;57711;53.196;19.638;2023-05-13T11:01:56;8.00;;;2.30;;
68379;SDS011;57711;53.196;19.638;2023-05-13T11:04:26;7.90;;;2.20;;
68379;SDS011;57711;53.196;19.638;2023-05-13T11:06:53;4.30;;;1.80;;
68379;SDS011;57711;53.196;19.638;2023-05-13T11:11:52;11.90;;;1.90;;
68379;SDS011;57711;53.196;19.638;2023-05-13T11:14:21;4.50;;;1.80;;
68379;SDS011;57711;53.196;19.638;2023-05-13T11:16:52;8.40;;;1.80;;
68379;SDS011;57711;53.196;19.638;2023-05-13T11:19:25;5.00;;;1.90;;
68379;SDS011;57711;53.196;19.638;2023-05-13T11:21:54;2.80;;;1.50;;
68379;SDS011;57711;53.196;19.638;2023-05-13T11:24:23;7.60;;;2.20;;
68379;SDS011;57711;53.196;19.638;2023-05-13T11:26:54;7.50;;;2.10;;
68379;SDS011;57711;53.196;19.638;2023-05-13T11:29:33;4.20;;;2.10;;
68379;SDS011;57711;53.196;19.638;2023-05-13T11:32:05;3.40;;;2.00;;
68379;SDS011;57711;53.196;19.638;2023-05-13T11:34:33;4.50;;;2.20;;
68379;SDS011;57711;53.196;19.638;2023-05-13T11:39:30;6.50;;;2.00;;
68379;SDS011;57711;53.196;19.638;2023-05-13T11:41:58;6.70;;;1.90;;
68379;SDS011;57711;53.196;19.638;2023-05-13T11:44:29;3.00;;;2.00;;
68379;SDS011;57711;53.196;19.638;2023-05-13T11:46:57;9.40;;;2.10;;
68379;SDS011;57711;53.196;19.638;2023-05-13T11:51:59;6.10;;;2.00;;
68379;SDS011;57711;53.196;19.638;2023-05-13T11:54:28;6.00;;;2.40;;
68379;SDS011;57711;53.196;19.638;2023-05-13T11:56:55;9.70;;;1.90;;
68379;SDS011;57711;53.196;19.638;2023-05-13T11:59:23;6.30;;;1.80;;
68379;SDS011;57711;53.196;19.638;2023-05-13T12:01:58;3.40;;;2.10;;
68379;SDS011;57711;53.196;19.638;2023-05-13T12:04:27;12.30;;;1.50;;
68379;SDS011;57711;53.196;19.638;2023-05-13T12:06:56;15.20;;;1.60;;
68379;SDS011;57711;53.196;19.638;2023-05-13T12:09:23;6.70;;;1.90;;
68379;SDS011;57711;53.196;19.638;2023-05-13T12:11:51;5.00;;;2.30;;
68379;SDS011;57711;53.196;19.638;2023-05-13T12:14:19;9.50;;;2.00;;
68379;SDS011;57711;53.196;19.638;2023-05-13T12:16:47;8.90;;;2.00;;
68379;SDS011;57711;53.196;19.638;2023-05-13T12:19:15;7.00;;;2.30;;
68379;SDS011;57711;53.196;19.638;2023-05-13T12:21:42;8.80;;;3.20;;
68379;SDS011;57711;53.196;19.638;2023-05-13T12:24:17;4.10;;;2.00;;
68379;SDS011;57711;53.196;19.638;2023-05-13T12:26:44;2.50;;;1.60;;
68379;SDS011;57711;53.196;19.638;2023-05-13T12:29:12;7.50;;;2.20;;
68379;SDS011;57711;53.196;19.638;2023-05-13T12:31:40;4.20;;;2.70;;
68379;SDS011;57711;53.196;19.638;2023-05-13T12:34:09;14.20;;;7.80;;
68379;SDS011;57711;53.196;19.638;2023-05-13T12:36:36;7.30;;;4.60;;
68379;SDS011;57711;53.196;19.638;2023-05-13T12:41:34;3.30;;;2.00;;
68379;SDS011;57711;53.196;19.638;2023-05-13T12:44:09;4.00;;;2.90;;
68379;SDS011;57711;53.196;19.638;2023-05-13T12:46:51;5.40;;;2.10;;
68379;SDS011;57711;53.196;19.638;2023-05-13T12:49:20;4.20;;;1.90;;
68379;SDS011;57711;53.196;19.638;2023-05-13T12:51:48;5.80;;;2.30;;
68379;SDS011;57711;53.196;19.638;2023-05-13T12:54:17;5.40;;;2.00;;
68379;SDS011;57711;53.196;19.638;2023-05-13T12:56:44;8.50;;;1.80;;
68379;SDS011;57711;53.196;19.638;2023-05-13T12:59:11;11.00;;;2.00;;
68379;SDS011;57711;53.196;19.638;2023-05-13T13:01:40;7.60;;;2.30;;
68379;SDS011;57711;53.196;19.638;2023-05-13T13:04:08;12.20;;;8.50;;
68379;SDS011;57711;53.196;19.638;2023-05-13T13:06:36;20.80;;;8.30;;
68379;SDS011;57711;53.196;19.638;2023-05-13T13:09:03;7.40;;;5.00;;
68379;SDS011;57711;53.196;19.638;2023-05-13T13:11:31;7.30;;;3.50;;
68379;SDS011;57711;53.196;19.638;2023-05-13T13:13:58;3.70;;;2.50;;
68379;SDS011;57711;53.196;19.638;2023-05-13T13:16:25;9.40;;;4.20;;
68379;SDS011;57711;53.196;19.638;2023-05-13T13:18:53;11.40;;;3.70;;
68379;SDS011;57711;53.196;19.638;2023-05-13T13:21:25;8.10;;;2.80;;
68379;SDS011;57711;53.196;19.638;2023-05-13T13:23:52;5.60;;;2.30;;
68379;SDS011;57711;53.196;19.638;2023-05-13T13:26:20;11.80;;;4.40;;
68379;SDS011;57711;53.196;19.638;2023-05-13T13:28:48;13.10;;;4.40;;
68379;SDS011;57711;53.196;19.638;2023-05-13T13:31:15;12.60;;;3.40;;
68379;SDS011;57711;53.196;19.638;2023-05-13T13:33:43;9.50;;;4.30;;
68379;SDS011;57711;53.196;19.638;2023-05-13T13:36:10;11.40;;;5.80;;
68379;SDS011;57711;53.196;19.638;2023-05-13T13:38:37;12.60;;;4.30;;
68379;SDS011;57711;53.196;19.638;2023-05-13T13:41:04;11.00;;;3.60;;
68379;SDS011;57711;53.196;19.638;2023-05-13T13:43:31;7.10;;;2.30;;
68379;SDS011;57711;53.196;19.638;2023-05-13T13:45:58;3.40;;;1.90;;
68379;SDS011;57711;53.196;19.638;2023-05-13T13:48:25;4.40;;;1.90;;
68379;SDS011;57711;53.196;19.638;2023-05-13T13:50:53;5.00;;;2.30;;
68379;SDS011;57711;53.196;19.638;2023-05-13T13:53:20;11.50;;;2.30;;
68379;SDS011;57711;53.196;19.638;2023-05-13T13:55:47;7.40;;;3.30;;
68379;SDS011;57711;53.196;19.638;2023-05-13T13:58:15;6.60;;;3.30;;
68379;SDS011;57711;53.196;19.638;2023-05-13T14:00:42;41.90;;;22.40;;
68379;SDS011;57711;53.196;19.638;2023-05-13T14:03:09;60.60;;;35.00;;
68379;SDS011;57711;53.196;19.638;2023-05-13T14:05:36;10.50;;;6.80;;
68379;SDS011;57711;53.196;19.638;2023-05-13T14:08:03;5.00;;;3.00;;
68379;SDS011;57711;53.196;19.638;2023-05-13T14:10:30;4.60;;;2.50;;
68379;SDS011;57711;53.196;19.638;2023-05-13T14:12:58;10.00;;;6.70;;
68379;SDS011;57711;53.196;19.638;2023-05-13T14:15:25;8.00;;;5.50;;
68379;SDS011;57711;53.196;19.638;2023-05-13T14:17:54;25.60;;;19.10;;
68379;SDS011;57711;53.196;19.638;2023-05-13T14:20:21;40.10;;;27.40;;
68379;SDS011;57711;53.196;19.638;2023-05-13T14:22:50;14.90;;;5.10;;
68379;SDS011;57711;53.196;19.638;2023-05-13T14:25:17;13.00;;;3.50;;
68379;SDS011;57711;53.196;19.638;2023-05-13T14:27:44;16.80;;;5.70;;
68379;SDS011;57711;53.196;19.638;2023-05-13T14:30:11;26.10;;;7.90;;
68379;SDS011;57711;53.196;19.638;2023-05-13T14:32:40;7.60;;;3.60;;
68379;SDS011;57711;53.196;19.638;2023-05-13T14:35:10;10.00;;;3.20;;
68379;SDS011;57711;53.196;19.638;2023-05-13T14:37:38;6.60;;;2.00;;
68379;SDS011;57711;53.196;19.638;2023-05-13T14:40:07;5.00;;;1.90;;
68379;SDS011;57711;53.196;19.638;2023-05-13T14:42:35;8.00;;;2.90;;
68379;SDS011;57711;53.196;19.638;2023-05-13T14:45:02;14.10;;;3.40;;
68379;SDS011;57711;53.196;19.638;2023-05-13T14:47:29;8.30;;;2.60;;
68379;SDS011;57711;53.196;19.638;2023-05-13T14:49:57;11.90;;;2.40;;
68379;SDS011;57711;53.196;19.638;2023-05-13T14:52:24;9.30;;;2.90;;
68379;SDS011;57711;53.196;19.638;2023-05-13T14:54:52;4.30;;;2.10;;